createdAt,value
2022-11-17T00:01:40.651Z,98813.53
2022-11-17T00:04:10.449Z,98808.63
2022-11-17T00:06:38.947Z,98815.91
2022-11-17T00:09:07.254Z,98807.44
2022-11-17T00:11:49.656Z,98808.47
2022-11-17T00:14:44.079Z,98792.91
2022-11-17T00:17:14.430Z,98791.22
2022-11-17T00:20:01.730Z,98786.00
2022-11-17T00:22:32.235Z,98775.50
2022-11-17T00:25:00.773Z,98775.44
2022-11-17T00:27:29.010Z,98771.03
2022-11-17T00:29:57.579Z,98762.25
2022-11-17T00:32:43.060Z,98758.69
2022-11-17T00:35:12.715Z,98751.59
2022-11-17T00:38:04.062Z,98741.97
2022-11-17T00:40:32.367Z,98739.31
2022-11-17T00:43:00.834Z,98734.06
2022-11-17T00:45:29.362Z,98730.50
2022-11-17T00:47:57.877Z,98720.03
2022-11-17T00:50:27.540Z,98721.75
2022-11-17T00:52:56.094Z,98711.25
2022-11-17T00:55:24.717Z,98721.75
2022-11-17T00:57:53.267Z,98721.75
2022-11-17T01:00:22.269Z,98713.78
2022-11-17T01:02:50.770Z,98703.28
2022-11-17T01:05:19.413Z,98698.91
2022-11-17T01:07:48.964Z,98691.88
2022-11-17T01:10:17.548Z,98684.88
2022-11-17T01:12:46.031Z,98687.50
2022-11-17T01:15:14.564Z,98691.03
2022-11-17T01:17:43.087Z,98682.34
2022-11-17T01:20:12.167Z,98679.66
2022-11-17T01:22:40.738Z,98675.31
2022-11-17T01:25:10.787Z,98662.38
2022-11-17T01:27:38.962Z,98668.59
2022-11-17T01:30:08.881Z,98676.72
2022-11-17T01:32:37.270Z,98666.31
2022-11-17T01:35:06.293Z,98658.56
2022-11-17T01:37:34.759Z,98656.78
2022-11-17T01:40:03.566Z,98636.66
2022-11-17T01:42:33.169Z,98634.81
2022-11-17T01:45:05.385Z,98616.31
2022-11-17T01:47:40.691Z,98612.75
2022-11-17T01:50:20.728Z,98606.44
2022-11-17T01:52:52.041Z,98606.28
2022-11-17T01:55:23.638Z,98593.91
2022-11-17T01:57:59.320Z,98588.66
2022-11-17T02:00:28.417Z,98583.59
2022-11-17T02:02:58.025Z,98568.06
2022-11-17T02:05:36.384Z,98578.53
2022-11-17T02:08:07.724Z,98561.91
2022-11-17T02:10:37.595Z,98555.72
2022-11-17T02:13:09.325Z,98548.63
2022-11-17T02:15:37.643Z,98546.75
2022-11-17T02:18:06.830Z,98531.78
2022-11-17T02:30:05.028Z,98525.44
2022-11-17T02:32:46.933Z,98525.25
2022-11-17T02:35:25.483Z,98517.13
2022-11-17T02:38:05.993Z,98504.44
2022-11-17T02:40:41.316Z,98506.75
2022-11-17T02:43:51.711Z,98497.75
2022-11-17T02:46:45.228Z,98486.25
2022-11-17T02:49:20.837Z,98481.69
2022-11-17T02:51:54.230Z,98473.53
2022-11-17T02:54:24.233Z,98472.53
2022-11-17T02:56:52.860Z,98477.56
2022-11-17T02:59:26.455Z,98477.38
2022-11-17T03:02:34.780Z,98466.91
2022-11-17T03:05:13.687Z,98465.03
2022-11-17T03:17:03.056Z,98480.22
2022-11-17T03:19:41.022Z,98464.63
2022-11-17T03:22:18.879Z,98476.25
2022-11-17T03:24:52.134Z,98487.19
2022-11-17T03:27:26.317Z,98464.53
2022-11-17T03:29:59.015Z,98477.41
2022-11-17T03:32:31.581Z,98471.50
2022-11-17T03:35:07.974Z,98468.75
2022-11-17T03:37:40.035Z,98474.19
2022-11-17T03:40:12.298Z,98468.94
2022-11-17T03:42:45.331Z,98481.97
2022-11-17T03:45:19.760Z,98463.53
2022-11-17T03:47:50.083Z,98470.47
2022-11-17T03:50:26.228Z,98467.66
2022-11-17T03:52:55.228Z,98478.69
2022-11-17T03:55:28.580Z,98477.41
2022-11-17T03:58:05.202Z,98471.03
2022-11-17T04:00:35.757Z,98468.97
2022-11-17T04:03:04.266Z,98458.16
2022-11-17T04:05:33.853Z,98470.06
2022-11-17T04:08:02.508Z,98462.13
2022-11-17T04:10:31.037Z,98455.84
2022-11-17T04:13:17.042Z,98454.88
2022-11-17T04:15:58.806Z,98470.72
2022-11-17T04:18:27.732Z,98460.97
2022-11-17T04:20:58.260Z,98465.38
2022-11-17T04:23:27.021Z,98463.59
2022-11-17T04:26:14.527Z,98462.56
2022-11-17T04:28:46.170Z,98470.44
2022-11-17T04:31:16.848Z,98471.19
2022-11-17T04:33:47.691Z,98465.00
2022-11-17T04:36:20.218Z,98457.13
2022-11-17T04:38:51.595Z,98464.03
2022-11-17T04:41:38.818Z,98460.69
2022-11-17T04:44:09.008Z,98477.75
2022-11-17T04:46:39.172Z,98465.22
2022-11-17T04:49:08.925Z,98468.19
2022-11-17T04:51:39.146Z,98459.28
2022-11-17T04:54:09.671Z,98460.69
2022-11-17T04:56:38.603Z,98455.13
2022-11-17T04:59:07.785Z,98448.31
2022-11-17T05:01:36.710Z,98444.00
2022-11-17T05:04:07.179Z,98455.31
2022-11-17T05:06:39.313Z,98438.59
2022-11-17T05:09:10.863Z,98435.59
2022-11-17T05:11:57.059Z,98437.09
2022-11-17T05:14:27.643Z,98436.84
2022-11-17T05:17:10.797Z,98442.72
2022-11-17T05:19:41.934Z,98433.91
2022-11-17T05:22:30.452Z,98429.63
2022-11-17T05:24:59.418Z,98428.09
2022-11-17T05:27:28.646Z,98415.94
2022-11-17T05:29:57.213Z,98436.16
2022-11-17T05:32:25.776Z,98427.56
2022-11-17T05:34:54.311Z,98439.91
2022-11-17T05:37:23.861Z,98434.66
2022-11-17T05:39:52.106Z,98437.09
2022-11-17T05:42:20.681Z,98436.97
2022-11-17T05:44:49.371Z,98428.03
2022-11-17T05:47:17.623Z,98433.91
2022-11-17T05:49:46.125Z,98440.84
2022-11-17T05:52:14.622Z,98425.13
2022-11-17T05:54:44.292Z,98423.25
2022-11-17T05:57:15.594Z,98419.69
2022-11-17T05:59:47.812Z,98427.19
2022-11-17T06:02:20.451Z,98417.25
2022-11-17T06:04:50.852Z,98416.88
2022-11-17T06:07:20.492Z,98419.25
2022-11-17T06:09:51.156Z,98436.28
2022-11-17T06:12:19.690Z,98430.75
2022-11-17T06:14:48.217Z,98428.78
2022-11-17T06:17:23.299Z,98418.94
2022-11-17T06:19:56.414Z,98427.38
2022-11-17T06:22:26.665Z,98424.63
2022-11-17T06:24:56.808Z,98428.09
2022-11-17T06:27:25.811Z,98421.94
2022-11-17T06:29:56.152Z,98429.69
2022-11-17T06:32:24.739Z,98432.22
2022-11-17T06:34:56.129Z,98441.88
2022-11-17T06:37:25.479Z,98447.97
2022-11-17T06:39:55.342Z,98446.84
2022-11-17T06:42:43.935Z,98439.59
2022-11-17T06:45:13.466Z,98448.34
2022-11-17T06:47:42.074Z,98456.41
2022-11-17T06:50:11.178Z,98451.16
2022-11-17T06:52:39.824Z,98444.97
2022-11-17T06:55:10.409Z,98442.22
2022-11-17T06:57:38.769Z,98445.72
2022-11-17T07:00:09.128Z,98443.00
2022-11-17T07:02:37.802Z,98447.22
2022-11-17T07:05:06.927Z,98446.19
2022-11-17T07:07:35.599Z,98438.19
2022-11-17T07:10:04.375Z,98437.16
2022-11-17T07:12:34.850Z,98455.44
2022-11-17T07:15:03.334Z,98455.25
2022-11-17T07:17:32.716Z,98450.00
2022-11-17T07:20:01.516Z,98442.03
2022-11-17T07:22:30.073Z,98468.19
2022-11-17T07:24:58.608Z,98438.47
2022-11-17T07:27:27.225Z,98432.34
2022-11-17T07:29:56.921Z,98444.75
2022-11-17T07:32:26.037Z,98439.50
2022-11-17T07:34:54.675Z,98446.44
2022-11-17T07:37:23.218Z,98445.41
2022-11-17T07:39:51.750Z,98461.78
2022-11-17T07:42:20.380Z,98449.44
2022-11-17T07:44:55.946Z,98440.59
2022-11-17T07:47:24.567Z,98450.91
2022-11-17T07:49:53.228Z,98452.41
2022-11-17T07:52:21.812Z,98461.00
2022-11-17T07:54:50.478Z,98471.31
2022-11-17T07:57:20.351Z,98474.59
2022-11-17T07:59:48.876Z,98495.31
2022-11-17T08:02:18.745Z,98500.38
2022-11-17T08:04:47.314Z,98497.38
2022-11-17T08:07:15.928Z,98481.84
2022-11-17T08:09:44.584Z,98468.00
2022-11-17T08:12:13.174Z,98484.69
2022-11-17T08:14:41.848Z,98480.03
2022-11-17T08:17:10.472Z,98494.44
2022-11-17T08:19:40.105Z,98490.31
2022-11-17T08:22:08.689Z,98500.81
2022-11-17T08:24:37.252Z,98499.84
2022-11-17T08:27:05.890Z,98478.88
2022-11-17T08:29:34.440Z,98486.03
2022-11-17T08:32:02.992Z,98486.19
2022-11-17T08:34:31.565Z,98480.97
2022-11-17T08:37:01.702Z,98480.97
2022-11-17T08:39:30.264Z,98487.22
2022-11-17T08:41:58.840Z,98492.38
2022-11-17T08:44:27.465Z,98486.38
2022-11-17T08:46:56.090Z,98477.56
2022-11-17T08:49:24.652Z,98494.97
2022-11-17T08:51:53.166Z,98491.44
2022-11-17T08:54:22.808Z,98493.00
2022-11-17T08:56:51.501Z,98503.25
2022-11-17T08:59:20.081Z,98504.53
2022-11-17T09:01:48.690Z,98504.34
2022-11-17T09:04:17.394Z,98504.34
2022-11-17T09:06:45.927Z,98505.22
2022-11-17T09:09:14.567Z,98505.88
2022-11-17T09:11:44.241Z,98508.38
2022-11-17T09:14:12.801Z,98498.56
2022-11-17T09:16:41.480Z,98517.66
2022-11-17T09:19:09.784Z,98524.44
2022-11-17T09:21:38.268Z,98528.53
2022-11-17T09:24:07.695Z,98530.78
2022-11-17T09:26:35.999Z,98528.75
2022-11-17T09:29:05.620Z,98544.63
2022-11-17T09:31:34.254Z,98553.84
2022-11-17T09:34:05.639Z,98545.66
2022-11-17T09:36:34.952Z,98552.44
2022-11-17T09:39:03.579Z,98552.13
2022-11-17T09:41:39.835Z,98559.63
2022-11-17T09:44:23.182Z,98556.59
2022-11-17T09:47:07.893Z,98567.66
2022-11-17T09:49:53.631Z,98556.13
2022-11-17T09:52:33.337Z,98571.78
2022-11-17T09:55:10.488Z,98572.72
2022-11-17T09:57:44.544Z,98569.34
2022-11-17T10:00:19.420Z,98571.25
2022-11-17T10:02:48.757Z,98566.63
2022-11-17T10:05:21.636Z,98574.25
2022-11-17T10:07:52.520Z,98572.38
2022-11-17T10:10:34.685Z,98582.69
2022-11-17T10:13:06.444Z,98572.53
2022-11-17T10:15:46.720Z,98566.59
2022-11-17T10:18:16.560Z,98571.28
2022-11-17T10:20:46.064Z,98574.41
2022-11-17T10:23:16.641Z,98563.50
2022-11-17T10:25:46.850Z,98573.63
2022-11-17T10:28:28.042Z,98565.44
2022-11-17T10:31:01.457Z,98565.25
2022-11-17T10:33:39.683Z,98566.00
2022-11-17T10:36:18.792Z,98558.63
2022-11-17T10:38:49.587Z,98567.81
2022-11-17T10:41:22.590Z,98567.19
2022-11-17T10:44:01.018Z,98575.41
2022-11-17T10:46:40.599Z,98576.69
2022-11-17T10:49:26.886Z,98579.75
2022-11-17T10:52:07.213Z,98584.91
2022-11-17T10:54:35.894Z,98572.06
2022-11-17T10:57:09.811Z,98577.72
2022-11-17T10:59:49.634Z,98575.63
2022-11-17T11:02:31.401Z,98575.84
2022-11-17T11:05:15.344Z,98572.44
2022-11-17T11:07:44.181Z,98566.25
2022-11-17T11:10:19.169Z,98565.50
2022-11-17T11:12:53.433Z,98569.06
2022-11-17T11:15:24.711Z,98569.28
2022-11-17T11:17:54.444Z,98576.63
2022-11-17T11:20:34.160Z,98579.38
2022-11-17T11:23:10.056Z,98580.63
2022-11-17T11:25:45.768Z,98584.44
2022-11-17T11:28:41.190Z,98597.53
2022-11-17T11:31:22.568Z,98594.63
2022-11-17T11:34:04.225Z,98596.75
2022-11-17T11:36:37.934Z,98589.91
2022-11-17T11:39:19.531Z,98587.78
2022-11-17T11:42:08.189Z,98573.66
2022-11-17T11:44:55.128Z,98577.91
2022-11-17T11:47:43.560Z,98572.88
2022-11-17T11:50:18.803Z,98582.81
2022-11-17T11:52:52.284Z,98575.13
2022-11-17T11:55:25.169Z,98591.66
2022-11-17T11:58:01.825Z,98590.19
2022-11-17T12:00:30.221Z,98606.53
2022-11-17T12:03:11.909Z,98594.31
2022-11-17T12:05:57.528Z,98601.28
2022-11-17T12:08:36.060Z,98591.03
2022-11-17T12:11:25.399Z,98597.47
2022-11-17T12:13:55.036Z,98599.59
2022-11-17T12:16:30.867Z,98599.56
2022-11-17T12:18:59.468Z,98592.28
2022-11-17T12:21:30.668Z,98595.47
2022-11-17T12:24:19.728Z,98599.75
2022-11-17T12:26:48.279Z,98616.56
2022-11-17T12:29:32.561Z,98620.47
2022-11-17T12:32:03.161Z,98615.59
2022-11-17T12:34:37.354Z,98619.19
2022-11-17T12:37:27.391Z,98612.41
2022-11-17T12:40:08.760Z,98619.25
2022-11-17T12:42:37.976Z,98626.06
2022-11-17T12:45:09.738Z,98639.63
2022-11-17T12:47:40.500Z,98639.97
2022-11-17T12:50:45.888Z,98648.03
2022-11-17T12:53:42.458Z,98636.59
2022-11-17T12:57:05.114Z,98640.91
2022-11-17T13:00:07.596Z,98633.34
2022-11-17T13:03:06.521Z,98628.78
2022-11-17T13:05:35.683Z,98635.63
2022-11-17T13:08:21.307Z,98624.00
2022-11-17T13:10:53.139Z,98604.72
2022-11-17T13:13:25.009Z,98610.63
2022-11-17T13:15:57.044Z,98615.69
2022-11-17T13:18:32.319Z,98616.63
2022-11-17T13:21:02.071Z,98622.78
2022-11-17T13:23:32.072Z,98623.63
2022-11-17T13:26:18.828Z,98620.16
2022-11-17T13:28:47.953Z,98614.75
2022-11-17T13:31:20.538Z,98609.13
2022-11-17T13:34:00.621Z,98607.84
2022-11-17T13:36:29.212Z,98613.25
2022-11-17T13:39:00.439Z,98615.31
2022-11-17T13:41:37.978Z,98619.47
2022-11-17T13:44:08.650Z,98632.78
2022-11-17T13:46:38.761Z,98632.97
2022-11-17T13:49:33.215Z,98622.66
2022-11-17T13:52:02.019Z,98592.84
2022-11-17T13:54:30.855Z,98592.84
2022-11-17T13:57:07.474Z,98615.50
2022-11-17T13:59:38.106Z,98630.91
2022-11-17T14:02:29.511Z,98623.41
2022-11-17T14:05:25.749Z,98623.03
2022-11-17T14:07:56.930Z,98626.41
2022-11-17T14:10:32.427Z,98634.38
2022-11-17T14:13:29.783Z,98651.19
2022-11-17T14:16:01.445Z,98653.03
2022-11-17T14:18:36.968Z,98649.66
2022-11-17T14:21:15.815Z,98665.59
2022-11-17T14:23:46.193Z,98662.25
2022-11-17T14:26:25.378Z,98664.28
2022-11-17T14:29:02.029Z,98674.69
2022-11-17T14:31:33.291Z,98668.00
2022-11-17T14:34:04.004Z,98667.31
2022-11-17T14:36:34.292Z,98690.41
2022-11-17T14:39:03.706Z,98671.44
2022-11-17T14:41:32.215Z,98677.56
2022-11-17T14:44:01.762Z,98649.34
2022-11-17T14:46:30.322Z,98661.19
2022-11-17T14:48:58.895Z,98647.69
2022-11-17T14:51:27.532Z,98661.03
2022-11-17T14:53:56.185Z,98653.44
2022-11-17T14:56:26.054Z,98654.34
2022-11-17T14:58:57.327Z,98669.34
2022-11-17T15:01:30.441Z,98671.19
2022-11-17T15:04:15.466Z,98669.44
2022-11-17T15:06:49.902Z,98661.56
2022-11-17T15:09:20.414Z,98665.94
2022-11-17T15:11:51.960Z,98673.81
2022-11-17T15:14:20.903Z,98673.81
2022-11-17T15:16:50.512Z,98676.41
2022-11-17T15:19:19.739Z,98683.47
2022-11-17T15:21:48.447Z,98674.84
2022-11-17T15:24:17.479Z,98678.41
2022-11-17T15:26:46.768Z,98669.78
2022-11-17T15:29:16.276Z,98679.41
2022-11-17T15:31:45.287Z,98684.75
2022-11-17T15:34:19.908Z,98691.78
2022-11-17T15:36:48.984Z,98709.25
2022-11-17T15:39:18.381Z,98711.84
2022-11-17T15:41:48.750Z,98703.09
2022-11-17T15:44:18.878Z,98708.34
2022-11-17T15:46:48.158Z,98711.78
2022-11-17T15:49:18.327Z,98715.25
2022-11-17T15:51:47.972Z,98717.88
2022-11-17T15:54:20.407Z,98714.41
2022-11-17T15:56:50.890Z,98713.75
2022-11-17T15:59:19.977Z,98696.66
2022-11-17T16:01:48.747Z,98688.94
2022-11-17T16:04:18.357Z,98697.13
2022-11-17T16:06:47.744Z,98700.88
2022-11-17T16:09:17.104Z,98696.63
2022-11-17T16:11:45.947Z,98696.78
2022-11-17T16:14:15.277Z,98697.63
2022-11-17T16:16:46.728Z,98691.56
2022-11-17T16:19:17.378Z,98681.94
2022-11-17T16:21:46.644Z,98701.97
2022-11-17T16:24:33.685Z,98696.78
2022-11-17T16:27:03.105Z,98704.75
2022-11-17T16:29:31.667Z,98687.31
2022-11-17T16:32:00.209Z,98695.28
2022-11-17T16:34:29.992Z,98697.03
2022-11-17T16:36:58.605Z,98689.34
2022-11-17T16:39:27.135Z,98673.63
2022-11-17T16:41:55.713Z,98677.97
2022-11-17T16:44:24.277Z,98673.63
2022-11-17T16:46:52.808Z,98665.78
2022-11-17T16:49:21.524Z,98657.00
2022-11-17T16:51:53.730Z,98663.94
2022-11-17T16:54:22.451Z,98687.50
2022-11-17T16:56:51.280Z,98723.22
2022-11-17T16:59:20.134Z,98732.78
2022-11-17T17:01:48.844Z,98717.22
2022-11-17T17:04:17.531Z,98714.69
2022-11-17T17:06:46.477Z,98714.78
2022-11-17T17:09:18.053Z,98708.69
2022-11-17T17:11:49.199Z,98710.44
2022-11-17T17:14:18.005Z,98705.19
2022-11-17T17:16:46.972Z,98714.78
2022-11-17T17:19:16.914Z,98713.00
2022-11-17T17:21:45.969Z,98706.91
2022-11-17T17:24:15.884Z,98707.81
2022-11-17T17:26:44.647Z,98713.16
2022-11-17T17:29:13.819Z,98716.72
2022-11-17T17:31:43.462Z,98715.00
2022-11-17T17:34:13.551Z,98720.22
2022-11-17T17:36:42.236Z,98726.41
2022-11-17T17:39:16.496Z,98737.72
2022-11-17T17:41:45.981Z,98722.94
2022-11-17T17:44:17.522Z,98722.94
2022-11-17T17:46:47.315Z,98733.41
2022-11-17T17:49:16.146Z,98731.72
2022-11-17T17:51:45.511Z,98742.19
2022-11-17T17:54:18.940Z,98744.06
2022-11-17T17:56:48.333Z,98733.56
2022-11-17T17:59:17.331Z,98729.25
2022-11-17T18:01:47.769Z,98717.88
2022-11-17T18:04:17.063Z,98723.09
2022-11-17T18:06:48.277Z,98719.56
2022-11-17T18:09:20.379Z,98722.28
2022-11-17T18:11:51.037Z,98710.09
2022-11-17T18:14:24.113Z,98711.78
2022-11-17T18:16:53.779Z,98710.94
2022-11-17T18:19:25.737Z,98723.09
2022-11-17T18:21:56.913Z,98726.56
2022-11-17T18:24:27.039Z,98721.22
2022-11-17T18:26:55.857Z,98715.09
2022-11-17T18:29:24.837Z,98712.47
2022-11-17T18:31:53.660Z,98727.25
2022-11-17T18:34:23.901Z,98726.31
2022-11-17T18:36:55.519Z,98731.53
2022-11-17T18:39:24.487Z,98728.94
2022-11-17T18:41:54.147Z,98726.31
2022-11-17T18:44:22.636Z,98729.88
2022-11-17T18:46:51.269Z,98736.03
2022-11-17T18:49:20.147Z,98724.72
2022-11-17T18:51:49.420Z,98731.72
2022-11-17T18:54:17.917Z,98729.19
2022-11-17T18:56:46.159Z,98733.56
2022-11-17T18:59:18.416Z,98727.41
2022-11-17T19:01:47.369Z,98711.78
2022-11-17T19:04:16.209Z,98719.72
2022-11-17T19:06:45.405Z,98716.16
2022-11-17T19:09:14.270Z,98717.88
2022-11-17T19:11:43.151Z,98718.56
2022-11-17T19:14:11.789Z,98721.00
2022-11-17T19:16:44.915Z,98706.06
2022-11-17T19:19:15.180Z,98710.44
2022-11-17T19:21:44.588Z,98720.91
2022-11-17T19:24:13.697Z,98727.88
2022-11-17T19:26:42.862Z,98723.53
2022-11-17T19:29:17.177Z,98717.38
2022-11-17T19:31:48.486Z,98722.63
2022-11-17T19:34:17.556Z,98726.16
2022-11-17T19:36:46.019Z,98722.78
2022-11-17T19:39:15.387Z,98727.25
2022-11-17T19:41:45.093Z,98739.50
2022-11-17T19:44:13.909Z,98737.81
2022-11-17T19:46:43.410Z,98730.88
2022-11-17T19:49:14.260Z,98742.19
2022-11-17T19:51:42.980Z,98740.50
2022-11-17T19:54:13.357Z,98751.91
2022-11-17T19:56:42.135Z,98745.72
2022-11-17T19:59:15.598Z,98745.72
2022-11-17T20:01:45.831Z,98736.94
2022-11-17T20:04:15.680Z,98736.03
2022-11-17T20:06:43.980Z,98731.72
2022-11-17T20:09:15.385Z,98742.19
2022-11-17T20:11:44.499Z,98750.03
2022-11-17T20:14:14.391Z,98753.44
2022-11-17T20:16:43.007Z,98754.34
2022-11-17T20:19:12.079Z,98758.66
2022-11-17T20:21:41.745Z,98762.97
2022-11-17T20:24:10.448Z,98751.59
2022-11-17T20:26:42.961Z,98760.28
2022-11-17T20:29:11.790Z,98762.81
2022-11-17T20:31:40.076Z,98764.50
2022-11-17T20:34:12.712Z,98771.44
2022-11-17T20:36:42.453Z,98773.13
2022-11-17T20:39:11.170Z,98780.91
2022-11-17T20:41:39.721Z,98779.91
2022-11-17T20:44:23.607Z,98772.81
2022-11-17T20:46:53.484Z,98777.13
2022-11-17T20:49:22.357Z,98779.75
2022-11-17T20:51:52.164Z,98780.59
2022-11-17T20:54:20.439Z,98788.38
2022-11-17T20:56:48.654Z,98776.13
2022-11-17T20:59:20.169Z,98776.03
2022-11-17T21:01:50.227Z,98777.75
2022-11-17T21:04:18.661Z,98777.75
2022-11-17T21:06:47.206Z,98783.72
2022-11-17T21:09:16.961Z,98782.03
2022-11-17T21:11:59.372Z,98781.94
2022-11-17T21:14:29.251Z,98795.13
2022-11-17T21:17:00.430Z,98791.69
2022-11-17T21:19:29.343Z,98799.59
2022-11-17T21:21:57.569Z,98802.22
2022-11-17T21:24:27.810Z,98802.22
2022-11-17T21:26:56.865Z,98804.00
2022-11-17T21:29:25.388Z,98804.09
2022-11-17T21:31:53.632Z,98796.31
2022-11-17T21:34:21.857Z,98805.94
2022-11-17T21:36:50.363Z,98800.75
2022-11-17T21:39:19.775Z,98805.16
2022-11-17T21:41:49.469Z,98807.78
2022-11-17T21:44:18.310Z,98824.31
2022-11-17T21:46:46.582Z,98829.56
2022-11-17T21:49:15.699Z,98832.13
2022-11-17T21:51:45.458Z,98842.59
2022-11-17T21:54:14.079Z,98840.75
2022-11-17T21:56:42.639Z,98840.75
2022-11-17T21:59:14.249Z,98839.81
2022-11-17T22:01:43.085Z,98837.19
2022-11-17T22:04:12.918Z,98833.66
2022-11-17T22:06:41.480Z,98840.66
2022-11-17T22:09:09.843Z,98833.66
2022-11-17T22:11:39.124Z,98830.13
2022-11-17T22:14:12.982Z,98823.16
2022-11-17T22:16:43.396Z,98828.41
2022-11-17T22:19:13.148Z,98835.34
2022-11-17T22:21:42.145Z,98840.59
2022-11-17T22:24:12.772Z,98835.34
2022-11-17T22:26:43.615Z,98834.47
2022-11-17T22:29:15.775Z,98831.97
2022-11-17T22:31:45.151Z,98831.97
2022-11-17T22:34:14.243Z,98832.91
2022-11-17T22:36:42.621Z,98828.56
2022-11-17T22:39:11.219Z,98826.88
2022-11-17T22:41:39.719Z,98835.66
2022-11-17T22:44:08.326Z,98832.28
2022-11-17T22:46:40.501Z,98821.97
2022-11-17T22:49:09.153Z,98837.81
2022-11-17T22:51:55.025Z,98835.34
2022-11-17T22:54:23.582Z,98840.75
2022-11-17T22:56:51.902Z,98851.28
2022-11-17T22:59:21.120Z,98845.38
2022-11-17T23:01:50.812Z,98846.34
2022-11-17T23:04:19.417Z,98849.97
2022-11-17T23:06:48.236Z,98852.75
2022-11-17T23:09:17.225Z,98843.25
2022-11-17T23:11:46.115Z,98847.81
2022-11-17T23:14:15.756Z,98857.59
2022-11-17T23:16:44.416Z,98847.28
2022-11-17T23:19:15.777Z,98849.19
2022-11-17T23:21:44.766Z,98858.88
2022-11-17T23:24:14.661Z,98855.47
2022-11-17T23:26:43.752Z,98851.19
2022-11-17T23:29:12.264Z,98862.59
2022-11-17T23:31:40.944Z,98855.63
2022-11-17T23:34:11.233Z,98863.41
2022-11-17T23:36:40.992Z,98859.03
2022-11-17T23:39:09.815Z,98853.00
2022-11-17T23:41:38.497Z,98852.13
2022-11-17T23:44:07.137Z,98861.66
2022-11-17T23:46:35.373Z,98855.47
2022-11-17T23:49:04.140Z,98862.44
2022-11-17T23:51:32.747Z,98862.44
2022-11-17T23:54:02.838Z,98862.44
2022-11-17T23:56:34.393Z,98862.44
2022-11-17T23:59:03.555Z,98870.28
